Time;durP1;ratioP1;P1;durP2;ratioP2;P2;SDS_P1;SDS_P2;PMS_P1;PMS_P2;Temp;Humidity;BMP_temperature;BMP_pressure;BME280_temperature;BME280_humidity;BME280_pressure;Samples;Min_cycle;Max_cycle;Signal;HPM_P1;HPM_P2
2024/01/15 00:02:03;;;;;;;0.90;0.80;;;;;;;12.65;47.48;96300.29;105687;1254;72510;-39
2024/01/15 00:04:29;;;;;;;1.00;0.90;;;;;;;12.65;47.37;96297.06;105668;1259;61340;-39
2024/01/15 00:06:56;;;;;;;1.60;1.10;;;;;;;12.65;47.43;96294.00;105584;1254;61325;-39
2024/01/15 00:09:23;;;;;;;1.40;1.00;;;;;;;12.66;47.54;96294.54;105505;1254;75080;-39
2024/01/15 00:11:50;;;;;;;1.10;1.00;;;;;;;12.65;47.50;96290.77;105438;1258;66064;-39
2024/01/15 00:14:19;;;;;;;1.00;0.90;;;;;;;12.66;47.51;96294.09;105506;1258;73027;-40
2024/01/15 00:16:47;;;;;;;1.10;1.00;;;;;;;12.66;47.47;96287.17;105916;1258;61238;-40
2024/01/15 00:19:13;;;;;;;2.00;1.10;;;;;;;12.66;47.47;96284.80;105697;1254;61343;-40
2024/01/15 00:21:40;;;;;;;1.10;1.00;;;;;;;12.66;47.52;96288.41;105996;1259;74399;-40
2024/01/15 00:24:07;;;;;;;1.00;0.90;;;;;;;12.66;47.56;96286.35;105406;1256;65868;-39
2024/01/15 00:26:33;;;;;;;1.60;1.20;;;;;;;12.66;47.55;96282.21;105986;1254;72445;-40
2024/01/15 00:29:00;;;;;;;1.10;1.00;;;;;;;12.66;47.44;96282.59;105378;1258;61312;-39
2024/01/15 00:31:27;;;;;;;1.10;0.90;;;;;;;12.66;47.32;96285.59;105562;1254;61323;-39
2024/01/15 00:33:53;;;;;;;1.10;1.00;;;;;;;12.66;47.49;96282.52;105628;1258;74366;-39
2024/01/15 00:36:20;;;;;;;1.00;1.00;;;;;;;12.66;47.50;96282.91;105534;1258;66375;-39
2024/01/15 00:38:47;;;;;;;1.20;1.00;;;;;;;12.66;47.55;96271.09;105729;1254;73146;-39
2024/01/15 00:41:14;;;;;;;1.30;1.00;;;;;;;12.67;47.48;96273.48;105606;1258;61255;-39
2024/01/15 00:43:41;;;;;;;1.10;1.00;;;;;;;12.67;47.52;96276.56;105642;1254;61296;-39
2024/01/15 00:46:08;;;;;;;1.40;1.00;;;;;;;12.67;47.36;96282.00;105669;1256;74603;-39
2024/01/15 00:48:34;;;;;;;1.00;0.90;;;;;;;12.66;47.46;96280.00;105534;1258;66215;-39
2024/01/15 00:51:01;;;;;;;1.10;1.00;;;;;;;12.67;47.46;96287.00;105363;1254;72763;-39
2024/01/15 00:53:28;;;;;;;1.10;1.00;;;;;;;12.67;47.54;96282.63;105483;1258;61258;-39
2024/01/15 00:55:55;;;;;;;1.60;1.10;;;;;;;12.67;47.45;96280.86;105515;1254;61229;-39
2024/01/15 00:58:21;;;;;;;0.90;0.90;;;;;;;12.67;47.54;96272.88;105625;1254;74576;-40
2024/01/15 01:00:48;;;;;;;1.20;1.10;;;;;;;12.67;47.46;96265.80;105428;1258;66095;-41
2024/01/15 01:03:14;;;;;;;1.00;0.90;;;;;;;12.67;47.42;96266.58;105622;1254;72551;-40
2024/01/15 01:05:41;;;;;;;1.30;1.20;;;;;;;12.67;47.49;96267.73;105462;1259;61251;-41
2024/01/15 01:08:08;;;;;;;1.10;1.00;;;;;;;12.67;47.43;96262.66;105466;1254;63725;-39
2024/01/15 01:10:35;;;;;;;1.20;1.10;;;;;;;12.67;47.49;96257.98;105317;1258;74606;-40
2024/01/15 01:13:01;;;;;;;2.10;1.10;;;;;;;12.67;47.42;96255.91;105501;1257;66015;-40
2024/01/15 01:15:28;;;;;;;1.00;0.90;;;;;;;12.67;47.40;96253.30;105494;1254;130994;-40
2024/01/15 01:17:55;;;;;;;1.00;0.90;;;;;;;12.67;47.58;96252.46;105661;1255;61352;-39
2024/01/15 01:20:21;;;;;;;0.80;0.80;;;;;;;12.67;47.56;96248.39;105676;1254;61274;-39
2024/01/15 01:22:48;;;;;;;1.00;0.90;;;;;;;12.67;47.41;96247.31;105703;1254;74564;-39
2024/01/15 01:25:15;;;;;;;1.60;1.10;;;;;;;12.67;47.43;96241.34;105674;1258;65904;-39
2024/01/15 01:27:42;;;;;;;1.30;1.20;;;;;;;12.67;47.42;96242.88;105667;1254;72583;-39
2024/01/15 01:30:09;;;;;;;0.80;0.80;;;;;;;12.67;47.50;96245.25;105633;1257;61220;-40
2024/01/15 01:32:36;;;;;;;1.30;1.00;;;;;;;12.67;47.58;96240.55;105656;1255;61332;-39
2024/01/15 01:35:04;;;;;;;1.20;1.10;;;;;;;12.67;47.52;96234.89;105427;1254;74390;-40
2024/01/15 01:37:30;;;;;;;1.30;1.10;;;;;;;12.67;47.46;96232.58;105561;1257;65994;-40
2024/01/15 01:39:57;;;;;;;1.50;1.20;;;;;;;12.67;47.44;96228.29;105616;1256;61283;-40
2024/01/15 01:42:23;;;;;;;1.10;1.00;;;;;;;12.67;47.46;96219.30;105655;1254;61358;-39
2024/01/15 01:44:50;;;;;;;1.00;1.00;;;;;;;12.67;47.45;96222.91;105641;1254;61261;-39
2024/01/15 01:47:16;;;;;;;1.20;1.10;;;;;;;12.67;47.45;96222.75;105635;1258;74349;-39
2024/01/15 01:49:43;;;;;;;1.00;1.00;;;;;;;12.68;47.50;96219.39;105627;1260;61231;-38
2024/01/15 01:52:10;;;;;;;1.50;1.00;;;;;;;12.68;47.43;96218.31;105675;1258;72425;-39
2024/01/15 01:54:37;;;;;;;1.40;1.00;;;;;;;12.67;47.49;96220.70;105421;1258;61249;-39
2024/01/15 01:57:04;;;;;;;1.40;1.10;;;;;;;12.68;47.35;96218.16;105461;1254;61366;-39
2024/01/15 01:59:32;;;;;;;1.20;1.10;;;;;;;12.68;47.42;96217.23;105638;1256;74555;-39
2024/01/15 02:01:59;;;;;;;0.90;0.90;;;;;;;12.67;47.43;96211.87;105700;1259;65736;-39
2024/01/15 02:04:26;;;;;;;1.00;0.90;;;;;;;12.67;47.47;96209.88;105509;1254;72491;-39
2024/01/15 02:06:52;;;;;;;1.10;1.00;;;;;;;12.68;47.41;96210.02;105769;1258;61227;-39
2024/01/15 02:09:20;;;;;;;1.10;1.00;;;;;;;12.68;47.59;96207.58;105531;1254;61227;-39
2024/01/15 02:11:47;;;;;;;1.10;1.00;;;;;;;12.68;47.35;96207.73;106007;1254;74560;-39
2024/01/15 02:14:14;;;;;;;1.00;0.90;;;;;;;12.67;47.37;96205.34;105579;1258;65100;-39
2024/01/15 02:16:41;;;;;;;1.10;1.00;;;;;;;12.67;47.57;96202.11;106081;1254;71609;-39
2024/01/15 02:19:07;;;;;;;1.50;1.10;;;;;;;12.68;47.49;96194.45;105609;1258;61233;-39
2024/01/15 02:21:34;;;;;;;1.00;0.90;;;;;;;12.68;47.59;96191.54;105697;1254;61251;-39
2024/01/15 02:24:01;;;;;;;1.10;1.00;;;;;;;12.68;47.44;96188.54;105639;1256;74486;-39
2024/01/15 02:26:28;;;;;;;1.20;1.10;;;;;;;12.68;47.47;96184.25;105631;1260;66344;-38
2024/01/15 02:28:54;;;;;;;1.10;1.00;;;;;;;12.68;47.50;96184.11;105399;1254;72446;-39
2024/01/15 02:31:21;;;;;;;1.00;1.00;;;;;;;12.68;47.34;96182.18;105298;1261;61472;-39
2024/01/15 02:33:48;;;;;;;1.00;0.90;;;;;;;12.68;47.50;96186.70;105490;1256;61321;-39
2024/01/15 02:36:16;;;;;;;1.30;1.20;;;;;;;12.68;47.47;96179.19;105495;1254;74753;-39
2024/01/15 02:38:42;;;;;;;1.70;1.20;;;;;;;12.68;47.53;96175.80;105699;1259;66197;-39
2024/01/15 02:41:09;;;;;;;1.50;1.10;;;;;;;12.68;47.56;96170.53;105457;1256;61231;-39
2024/01/15 02:43:35;;;;;;;2.10;1.20;;;;;;;12.68;47.54;96170.90;105333;1254;61286;-40
2024/01/15 02:46:02;;;;;;;1.40;1.00;;;;;;;12.68;47.53;96164.36;105358;1254;61223;-39
2024/01/15 02:48:29;;;;;;;1.40;1.10;;;;;;;12.68;47.39;96164.99;105420;1259;75597;-39
2024/01/15 02:50:55;;;;;;;1.30;1.10;;;;;;;12.68;47.51;96158.17;105377;1258;66005;-40
2024/01/15 02:53:22;;;;;;;1.00;0.90;;;;;;;12.68;47.39;96160.16;105665;1254;61259;-40
2024/01/15 02:55:49;;;;;;;0.80;0.80;;;;;;;12.69;47.40;96161.86;105679;1258;61254;-40
2024/01/15 02:58:15;;;;;;;1.00;0.90;;;;;;;12.68;47.54;96161.45;105635;1254;61228;-40
2024/01/15 03:00:42;;;;;;;1.00;0.90;;;;;;;12.68;47.43;96162.78;105623;1258;74614;-40
2024/01/15 03:03:09;;;;;;;1.00;0.90;;;;;;;12.67;47.50;96157.07;105497;1258;66144;-40
2024/01/15 03:05:36;;;;;;;1.20;1.10;;;;;;;12.68;47.48;96158.08;105411;1254;73050;-40
2024/01/15 03:08:03;;;;;;;1.20;1.10;;;;;;;12.68;47.49;96155.09;105446;1258;63538;-40
2024/01/15 03:10:30;;;;;;;1.20;1.10;;;;;;;12.68;47.52;96158.16;105634;1254;62864;-40
2024/01/15 03:12:57;;;;;;;1.10;1.00;;;;;;;12.68;47.46;96156.62;105648;1256;74400;-40
2024/01/15 03:15:24;;;;;;;1.50;1.20;;;;;;;12.67;47.51;96161.75;105462;1257;66275;-40
2024/01/15 03:17:50;;;;;;;1.40;1.30;;;;;;;12.68;47.45;96156.30;105353;1254;72296;-39
2024/01/15 03:20:17;;;;;;;1.10;1.00;;;;;;;12.67;47.54;96154.38;105419;1257;61180;-39
2024/01/15 03:22:43;;;;;;;1.10;1.00;;;;;;;12.67;47.58;96156.91;105629;1254;61314;-39
2024/01/15 03:25:10;;;;;;;1.40;1.30;;;;;;;12.68;47.49;96160.16;105697;1255;74427;-39
2024/01/15 03:27:36;;;;;;;2.30;1.00;;;;;;;12.69;47.42;96157.56;105648;1258;66253;-39
2024/01/15 03:30:04;;;;;;;1.10;1.00;;;;;;;12.68;47.50;96162.14;105610;1258;72603;-39
2024/01/15 03:32:31;;;;;;;1.50;1.00;;;;;;;12.68;47.43;96162.30;105660;1258;61228;-39
2024/01/15 03:34:58;;;;;;;1.10;1.00;;;;;;;12.69;47.58;96161.48;105587;1254;61339;-40
2024/01/15 03:37:25;;;;;;;1.00;0.90;;;;;;;12.68;47.57;96156.00;105619;1256;74573;-39
2024/01/15 03:39:51;;;;;;;1.10;1.00;;;;;;;12.68;47.48;96156.94;105714;1258;66499;-39
2024/01/15 03:42:18;;;;;;;1.30;1.00;;;;;;;12.68;47.51;96157.09;105536;1256;72436;-41
2024/01/15 03:44:45;;;;;;;1.10;1.00;;;;;;;12.68;47.51;96154.48;105242;1261;61232;-41
2024/01/15 03:47:11;;;;;;;1.20;1.10;;;;;;;12.68;47.44;96156.55;105424;1254;61363;-41
2024/01/15 03:49:38;;;;;;;1.60;1.30;;;;;;;12.68;47.64;96151.56;105578;1255;61291;-41
2024/01/15 03:52:05;;;;;;;0.90;0.90;;;;;;;12.68;47.50;96142.97;105639;1258;66042;-40
2024/01/15 03:54:32;;;;;;;1.10;1.00;;;;;;;12.68;47.61;96139.30;105662;1255;72519;-40
2024/01/15 03:56:58;;;;;;;0.80;0.80;;;;;;;12.68;47.54;96137.53;105652;1259;61253;-39
2024/01/15 03:59:26;;;;;;;1.10;1.00;;;;;;;12.69;47.47;96133.77;105682;1256;61290;-39
2024/01/15 04:01:53;;;;;;;1.00;0.90;;;;;;;12.68;47.52;96128.46;105955;1254;74514;-39
2024/01/15 04:04:19;;;;;;;1.00;1.00;;;;;;;12.68;47.54;96128.93;105385;1258;66328;-39
2024/01/15 04:06:46;;;;;;;1.20;1.10;;;;;;;12.68;47.38;96124.48;105526;1255;72496;-39
2024/01/15 04:09:13;;;;;;;1.20;0.90;;;;;;;12.68;47.48;96124.10;105556;1258;61247;-39
2024/01/15 04:11:40;;;;;;;1.10;1.00;;;;;;;12.69;47.48;96123.18;106015;1254;61223;-39
2024/01/15 04:14:07;;;;;;;1.40;1.00;;;;;;;12.68;47.48;96120.09;105600;1256;74565;-39
2024/01/15 04:16:33;;;;;;;1.10;1.00;;;;;;;12.68;47.62;96117.34;105471;1258;66222;-39
2024/01/15 04:19:00;;;;;;;1.10;1.00;;;;;;;12.69;47.50;96121.97;105556;1256;61226;-39
2024/01/15 04:21:26;;;;;;;1.20;1.10;;;;;;;12.68;47.64;96121.26;105593;1258;61257;-39
2024/01/15 04:23:53;;;;;;;1.60;1.10;;;;;;;12.69;47.48;96116.13;105428;1255;61326;-39
2024/01/15 04:26:19;;;;;;;1.30;1.10;;;;;;;12.68;47.61;96117.66;105423;1254;74668;-39
2024/01/15 04:28:46;;;;;;;0.90;0.90;;;;;;;12.69;47.56;96113.98;105452;1258;66028;-39
2024/01/15 04:31:26;;;;;;;1.10;0.90;;;;;;;12.69;47.49;96108.60;105325;1254;72325;-40
2024/01/15 04:33:53;;;;;;;1.00;0.90;;;;;;;12.69;47.59;96110.98;105514;1254;61235;-40
2024/01/15 04:36:20;;;;;;;1.30;1.10;;;;;;;12.69;47.51;96107.38;105671;1254;61314;-40
2024/01/15 04:38:47;;;;;;;1.10;1.00;;;;;;;12.69;47.67;96106.84;105693;1256;74327;-39
2024/01/15 04:41:14;;;;;;;0.90;0.90;;;;;;;12.69;47.51;96097.86;105550;1258;64265;-39
2024/01/15 04:43:40;;;;;;;1.70;1.20;;;;;;;12.69;47.52;96098.02;105650;1258;72666;-40
2024/01/15 04:46:07;;;;;;;1.20;1.00;;;;;;;12.69;47.57;96095.87;105533;1258;61376;-39
2024/01/15 04:48:34;;;;;;;1.00;1.00;;;;;;;12.68;47.50;96093.64;105548;1256;61179;-40
2024/01/15 04:51:00;;;;;;;1.00;0.90;;;;;;;12.69;47.64;96092.34;105618;1256;74533;-39
2024/01/15 04:53:27;;;;;;;1.10;1.00;;;;;;;12.69;47.55;96091.27;105475;1258;66341;-39
2024/01/15 04:55:54;;;;;;;1.10;1.00;;;;;;;12.69;47.55;96089.41;105373;1256;72594;-39
2024/01/15 04:58:21;;;;;;;1.20;1.10;;;;;;;12.69;47.61;96089.20;105454;1258;61228;-40
2024/01/15 05:00:47;;;;;;;1.30;1.10;;;;;;;12.69;47.66;96083.98;105595;1255;61604;-40
2024/01/15 05:03:14;;;;;;;1.10;1.00;;;;;;;12.70;47.55;96081.91;105513;1258;74629;-39
2024/01/15 05:05:41;;;;;;;1.20;1.10;;;;;;;12.70;47.55;96080.23;105328;1255;65576;-39
2024/01/15 05:08:07;;;;;;;1.20;1.00;;;;;;;12.70;47.55;96082.23;105688;1255;72401;-40
2024/01/15 05:10:34;;;;;;;1.10;1.00;;;;;;;12.71;47.49;96077.34;105595;1259;61317;-40
2024/01/15 05:13:00;;;;;;;1.10;1.00;;;;;;;12.71;47.60;96076.65;105505;1255;61207;-40
2024/01/15 05:15:27;;;;;;;1.10;1.00;;;;;;;12.72;47.48;96072.67;105333;1258;74393;-40
2024/01/15 05:17:54;;;;;;;1.00;0.90;;;;;;;12.73;47.42;96072.02;105475;1258;65896;-40
2024/01/15 05:20:21;;;;;;;1.00;0.90;;;;;;;12.73;47.54;96069.20;105571;1258;71448;-39
2024/01/15 05:22:48;;;;;;;1.20;1.10;;;;;;;12.75;47.48;96064.00;105614;1258;61169;-39
2024/01/15 05:25:14;;;;;;;1.20;1.10;;;;;;;12.75;47.54;96063.71;105382;1255;61260;-39
2024/01/15 05:27:41;;;;;;;2.40;1.20;;;;;;;12.77;47.54;96060.05;105363;1258;74588;-39
2024/01/15 05:30:08;;;;;;;1.20;1.10;;;;;;;12.77;47.49;96061.52;105482;1258;66159;-39
2024/01/15 05:32:35;;;;;;;1.10;0.90;;;;;;;12.78;47.40;96060.93;105661;1256;72632;-40
2024/01/15 05:35:02;;;;;;;1.20;1.10;;;;;;;12.79;47.47;96061.41;105599;1259;61254;-40
2024/01/15 05:37:30;;;;;;;1.60;0.90;;;;;;;12.80;47.58;96062.73;105598;1256;61334;-39
2024/01/15 05:39:56;;;;;;;1.20;1.00;;;;;;;12.81;47.53;96063.69;105623;1256;74407;-39
2024/01/15 05:42:23;;;;;;;1.00;0.90;;;;;;;12.82;47.46;96057.79;105699;1258;65872;-39
2024/01/15 05:44:50;;;;;;;1.10;1.00;;;;;;;12.82;47.55;96055.27;105607;1256;72776;-39
2024/01/15 05:47:17;;;;;;;0.80;0.80;;;;;;;12.83;47.39;96054.61;105586;1259;61259;-40
2024/01/15 05:49:43;;;;;;;1.10;1.00;;;;;;;12.84;47.43;96049.48;105308;1254;61324;-40
2024/01/15 05:52:10;;;;;;;1.30;0.90;;;;;;;12.85;47.55;96046.88;105430;1259;74757;-41
2024/01/15 05:54:37;;;;;;;1.50;1.00;;;;;;;12.85;47.47;96045.11;105334;1258;65901;-40
2024/01/15 05:57:04;;;;;;;1.20;0.90;;;;;;;12.86;47.46;96047.29;105443;1256;72478;-40
2024/01/15 05:59:33;;;;;;;1.30;1.00;;;;;;;12.86;47.53;96042.76;105333;1258;61357;-40
2024/01/15 06:02:00;;;;;;;1.20;1.10;;;;;;;12.87;47.38;96040.19;105488;1256;61337;-40
2024/01/15 06:04:27;;;;;;;1.20;1.10;;;;;;;12.88;47.42;96037.13;105550;1256;74624;-40
2024/01/15 06:06:54;;;;;;;1.70;1.00;;;;;;;12.89;47.45;96038.06;105834;1258;66193;-40
2024/01/15 06:09:20;;;;;;;1.10;0.90;;;;;;;12.90;47.48;96037.54;105638;1256;72399;-40
2024/01/15 06:11:47;;;;;;;1.30;1.20;;;;;;;12.90;47.36;96040.85;105830;1258;61294;-40
2024/01/15 06:14:14;;;;;;;2.20;1.10;;;;;;;12.91;47.33;96039.95;105522;1255;61354;-41
2024/01/15 06:16:40;;;;;;;1.10;1.00;;;;;;;12.91;47.46;96041.64;105531;1259;74350;-41
2024/01/15 06:19:07;;;;;;;1.10;1.00;;;;;;;12.92;47.38;96041.66;105586;1258;66705;-40
2024/01/15 06:21:34;;;;;;;1.10;0.90;;;;;;;12.92;47.32;96041.59;105524;1256;72329;-41
2024/01/15 06:24:01;;;;;;;1.10;1.00;;;;;;;12.93;47.42;96034.02;105448;1259;61238;-39
2024/01/15 06:26:27;;;;;;;1.50;1.10;;;;;;;12.93;47.40;96032.17;105408;1256;61242;-39
2024/01/15 06:28:54;;;;;;;1.10;1.00;;;;;;;12.94;47.36;96034.95;105603;1258;74726;-40
2024/01/15 06:31:20;;;;;;;1.10;1.00;;;;;;;12.95;47.30;96035.05;105406;1258;65612;-41
2024/01/15 06:33:48;;;;;;;1.40;1.00;;;;;;;12.96;47.40;96036.98;105323;1256;72674;-39
2024/01/15 06:36:18;;;;;;;1.20;1.00;;;;;;;12.96;47.37;96035.39;105342;1258;61263;-40
2024/01/15 06:38:45;;;;;;;1.00;1.00;;;;;;;12.97;47.33;96033.71;105389;1254;61348;-39
2024/01/15 06:41:12;;;;;;;1.00;0.90;;;;;;;12.98;47.38;96035.95;105536;1258;74623;-40
2024/01/15 06:43:38;;;;;;;1.30;1.20;;;;;;;12.98;47.32;96037.27;105382;1258;61384;-40
2024/01/15 06:46:05;;;;;;;0.90;0.90;;;;;;;12.99;47.28;96034.05;105350;1256;71531;-40
2024/01/15 06:48:34;;;;;;;1.70;1.00;;;;;;;13.00;47.28;96025.63;105639;1258;61224;-40
2024/01/15 06:51:02;;;;;;;1.30;1.20;;;;;;;13.01;47.40;96025.80;105679;1256;62010;-40
2024/01/15 06:53:28;;;;;;;1.10;1.00;;;;;;;13.01;47.30;96025.19;105736;1254;74572;-39
2024/01/15 06:55:55;;;;;;;1.20;1.10;;;;;;;13.01;47.29;96023.45;105573;1258;66349;-39
2024/01/15 06:58:22;;;;;;;1.10;1.00;;;;;;;13.02;47.28;96022.08;105427;1256;72601;-41
2024/01/15 07:00:48;;;;;;;1.10;1.00;;;;;;;13.03;47.26;96018.94;105333;1258;61312;-40
2024/01/15 07:03:15;;;;;;;1.30;1.20;;;;;;;13.04;47.28;96018.20;105328;1254;61237;-40
2024/01/15 07:05:42;;;;;;;1.10;1.00;;;;;;;13.04;47.32;96018.52;105317;1254;74805;-40
2024/01/15 07:08:09;;;;;;;1.30;1.20;;;;;;;13.06;47.34;96026.67;105536;1258;65643;-39
2024/01/15 07:10:35;;;;;;;1.20;1.10;;;;;;;13.06;47.20;96028.38;105457;1256;73034;-39
2024/01/15 07:13:05;;;;;;;2.90;1.10;;;;;;;13.07;47.42;96028.43;105359;1259;61301;-40
2024/01/15 07:15:31;;;;;;;1.10;0.80;;;;;;;13.08;47.20;96025.44;105387;1254;61356;-40
2024/01/15 07:17:58;;;;;;;1.20;1.10;;;;;;;13.09;47.24;96021.25;105475;1254;74590;-40
2024/01/15 07:20:25;;;;;;;1.20;1.10;;;;;;;13.09;47.29;96021.02;105524;1258;66143;-40
2024/01/15 07:22:52;;;;;;;1.00;0.90;;;;;;;13.10;47.25;96014.89;105514;1256;71417;-40
2024/01/15 07:25:18;;;;;;;1.10;1.00;;;;;;;13.11;47.23;96015.69;105430;1258;61240;-41
2024/01/15 07:27:46;;;;;;;1.40;1.10;;;;;;;13.12;47.37;96015.55;105386;1254;61326;-39
2024/01/15 07:30:13;;;;;;;1.20;1.10;;;;;;;13.12;47.23;96015.23;105600;1255;74495;-39
2024/01/15 07:32:40;;;;;;;1.30;1.20;;;;;;;13.13;47.20;96009.18;105573;1253;66192;-40
2024/01/15 07:35:07;;;;;;;1.00;0.90;;;;;;;13.14;47.21;96006.84;105773;1253;72580;-40
2024/01/15 07:37:34;;;;;;;1.30;1.20;;;;;;;13.14;47.15;96013.77;105741;1259;61359;-40
2024/01/15 07:40:01;;;;;;;1.50;1.20;;;;;;;13.15;47.22;96013.38;105800;1253;62119;-40
2024/01/15 07:42:28;;;;;;;2.20;1.00;;;;;;;13.16;47.22;96012.48;105583;1259;74382;-40
2024/01/15 07:44:55;;;;;;;1.50;1.10;;;;;;;13.17;47.17;96011.87;105531;1258;66020;-40
2024/01/15 07:47:21;;;;;;;1.00;1.00;;;;;;;13.17;47.30;96008.50;105728;1253;72655;-39
2024/01/15 07:49:48;;;;;;;1.20;1.10;;;;;;;13.18;47.24;96007.61;105682;1259;61167;-39
2024/01/15 07:52:15;;;;;;;1.20;1.00;;;;;;;13.18;47.06;96003.23;105689;1253;61463;-39
2024/01/15 07:54:42;;;;;;;1.10;1.00;;;;;;;13.19;47.10;96002.55;105546;1254;74582;-40
2024/01/15 07:57:08;;;;;;;1.40;1.30;;;;;;;13.20;47.06;95999.05;105695;1259;65679;-40
2024/01/15 07:59:35;;;;;;;1.20;1.10;;;;;;;13.21;47.17;95993.31;105662;1253;73957;-40
2024/01/15 08:02:02;;;;;;;1.20;1.10;;;;;;;13.21;47.09;95982.64;105317;1259;61234;-40
2024/01/15 08:04:29;;;;;;;1.60;1.10;;;;;;;13.22;47.05;95987.26;105420;1256;61349;-40
2024/01/15 08:06:56;;;;;;;1.30;1.20;;;;;;;13.23;47.03;95985.51;105360;1260;75735;-41
2024/01/15 08:09:23;;;;;;;1.10;1.00;;;;;;;13.24;47.07;95986.97;105511;1261;65270;-41
2024/01/15 08:11:50;;;;;;;1.20;1.10;;;;;;;13.25;46.94;95986.00;105337;1261;72520;-39
2024/01/15 08:14:17;;;;;;;0.80;0.80;;;;;;;13.25;47.05;95983.25;105148;1261;61167;-40
2024/01/15 08:16:44;;;;;;;0.80;0.80;;;;;;;13.26;47.12;95983.34;105806;1256;61265;-39
2024/01/15 08:19:11;;;;;;;1.60;1.20;;;;;;;13.26;46.98;95984.11;105642;1256;74154;-39
2024/01/15 08:21:38;;;;;;;1.10;1.00;;;;;;;13.28;47.04;95977.99;105527;1260;67007;-39
2024/01/15 08:24:05;;;;;;;1.30;1.20;;;;;;;13.28;47.00;95970.63;105401;1257;72590;-40
2024/01/15 08:26:35;;;;;;;1.20;1.00;;;;;;;13.29;47.03;95968.18;105293;1262;61837;-38
2024/01/15 08:29:01;;;;;;;1.20;1.10;;;;;;;13.29;46.87;95976.10;105286;1256;61259;-39
2024/01/15 08:31:28;;;;;;;1.70;1.20;;;;;;;13.30;46.98;95972.90;105397;1256;76121;-40
2024/01/15 08:33:55;;;;;;;1.70;1.10;;;;;;;13.31;46.90;95969.14;105623;1259;65799;-40
2024/01/15 08:36:24;;;;;;;1.30;1.10;;;;;;;13.31;46.95;95969.06;105426;1256;72458;-39
2024/01/15 08:38:51;;;;;;;1.20;1.10;;;;;;;13.32;46.89;95968.77;105389;1260;61378;-39
2024/01/15 08:41:18;;;;;;;1.50;1.10;;;;;;;13.32;46.90;95969.77;105124;1261;61693;-41
2024/01/15 08:43:44;;;;;;;1.30;1.10;;;;;;;13.33;46.92;95968.73;105426;1256;75097;-39
2024/01/15 08:46:11;;;;;;;1.30;1.10;;;;;;;13.33;46.82;95965.80;105253;1261;65506;-39
2024/01/15 08:48:37;;;;;;;1.30;1.10;;;;;;;13.34;46.88;95963.14;105145;1256;72557;-39
2024/01/15 08:51:04;;;;;;;1.00;0.90;;;;;;;13.35;46.96;95958.01;105616;1262;61254;-39
2024/01/15 08:53:32;;;;;;;1.10;1.00;;;;;;;13.35;46.98;95964.31;105626;1256;61685;-40
2024/01/15 08:55:59;;;;;;;1.10;1.00;;;;;;;13.36;46.80;95957.41;105548;1260;74375;-40
2024/01/15 08:58:26;;;;;;;1.50;1.10;;;;;;;13.36;46.89;95957.89;105499;1260;67076;-39
2024/01/15 09:00:52;;;;;;;1.50;1.10;;;;;;;13.37;46.94;95955.27;105533;1254;72569;-40
2024/01/15 09:03:19;;;;;;;1.10;1.00;;;;;;;13.38;46.81;95949.06;105372;1259;61337;-39
2024/01/15 09:05:46;;;;;;;1.60;1.20;;;;;;;13.37;47.01;95952.52;105346;1258;61246;-40
2024/01/15 09:08:13;;;;;;;1.20;1.10;;;;;;;13.39;46.81;95951.85;105556;1259;74583;-39
2024/01/15 09:10:40;;;;;;;3.70;1.40;;;;;;;13.39;46.78;95946.71;105424;1258;66203;-40
2024/01/15 09:13:08;;;;;;;1.20;1.10;;;;;;;13.40;46.78;95945.58;105396;1256;72736;-40
2024/01/15 09:15:34;;;;;;;0.80;0.80;;;;;;;13.41;46.80;95944.04;105532;1258;61365;-40
2024/01/15 09:18:02;;;;;;;1.20;1.10;;;;;;;13.42;46.84;95935.95;105481;1259;61252;-40
2024/01/15 09:20:31;;;;;;;1.20;1.10;;;;;;;13.42;46.86;95928.57;105499;1259;75629;-40
2024/01/15 09:22:58;;;;;;;1.30;1.20;;;;;;;13.44;46.80;95932.81;105461;1258;66267;-40
2024/01/15 09:25:25;;;;;;;1.20;1.10;;;;;;;13.45;46.84;95927.98;105361;1259;72123;-39
2024/01/15 09:27:51;;;;;;;1.20;1.10;;;;;;;13.45;46.88;95926.92;105557;1259;61801;-39
2024/01/15 09:30:18;;;;;;;1.40;1.20;;;;;;;13.47;46.83;95933.25;105508;1256;61292;-40
2024/01/15 09:32:45;;;;;;;1.30;1.20;;;;;;;13.48;46.76;95922.82;105474;1260;73864;-39
2024/01/15 09:35:12;;;;;;;2.00;1.10;;;;;;;13.48;46.80;95920.84;105612;1260;66892;-39
2024/01/15 09:37:39;;;;;;;2.10;1.30;;;;;;;13.50;46.74;95916.33;105533;1255;73355;-40
2024/01/15 09:40:16;;;;;;;1.20;1.10;;;;;;;13.52;46.64;95917.28;105384;1259;61821;-40
2024/01/15 09:42:44;;;;;;;1.10;1.00;;;;;;;13.54;46.85;95911.93;105486;1259;61353;-40
2024/01/15 09:45:11;;;;;;;1.20;1.10;;;;;;;13.56;46.66;95913.59;105387;1261;75449;-40
2024/01/15 09:47:38;;;;;;;1.20;1.10;;;;;;;13.58;46.79;95908.02;105526;1260;66494;-40
2024/01/15 09:50:09;;;;;;;3.00;1.20;;;;;;;13.60;46.68;95901.66;105455;1257;71395;-41
2024/01/15 09:52:36;;;;;;;1.40;1.00;;;;;;;13.61;46.61;95901.91;105445;1256;61267;-41
2024/01/15 09:55:05;;;;;;;1.80;1.20;;;;;;;13.62;46.63;95903.94;105356;1256;61333;-40
2024/01/15 10:02:37;;;;;;;1.10;1.00;;;;;;;13.66;46.59;95910.05;105216;1264;67532;-40
2024/01/15 10:05:04;;;;;;;1.20;1.00;;;;;;;13.67;46.59;95911.23;105486;1255;72417;-41
2024/01/15 10:07:31;;;;;;;1.20;1.10;;;;;;;13.69;46.54;95911.88;105288;1260;61247;-40
2024/01/15 10:09:58;;;;;;;1.10;1.00;;;;;;;13.71;46.58;95913.07;105194;1256;61318;-40
2024/01/15 10:12:26;;;;;;;1.40;1.10;;;;;;;13.73;46.52;95913.55;105456;1259;75689;-40
2024/01/15 10:14:53;;;;;;;1.20;1.10;;;;;;;13.75;46.54;95913.65;105342;1259;67022;-40
2024/01/15 10:17:20;;;;;;;1.70;1.20;;;;;;;13.75;46.52;95910.58;105778;1258;73449;-40
2024/01/15 10:19:47;;;;;;;1.00;0.90;;;;;;;13.77;46.59;95909.61;105439;1259;61293;-39
2024/01/15 10:22:17;;;;;;;1.30;1.10;;;;;;;13.76;46.64;95909.30;105403;1259;61159;-40
2024/01/15 10:24:45;;;;;;;1.10;1.00;;;;;;;13.78;46.49;95908.80;105338;1254;75829;-40
2024/01/15 10:27:12;;;;;;;1.10;1.00;;;;;;;13.79;46.41;95905.58;105458;1259;67227;-40
2024/01/15 10:29:40;;;;;;;1.00;0.90;;;;;;;13.80;46.39;95898.98;105337;1259;73338;-40
2024/01/15 10:32:08;;;;;;;1.20;1.10;;;;;;;13.81;46.43;95899.45;105222;1255;61341;-40
2024/01/15 10:34:39;;;;;;;1.10;1.00;;;;;;;13.81;46.47;95892.23;105439;1259;61354;-40
2024/01/15 10:37:09;;;;;;;1.60;1.20;;;;;;;13.81;46.54;95883.40;105576;1254;74696;-40
2024/01/15 10:39:36;;;;;;;1.10;1.00;;;;;;;13.81;46.51;95879.71;105613;1259;67375;-40
2024/01/15 10:42:04;;;;;;;1.00;0.90;;;;;;;13.81;46.36;95876.56;105377;1259;73375;-41
2024/01/15 10:44:31;;;;;;;1.40;1.20;;;;;;;13.82;46.41;95879.02;105510;1259;61370;-40
2024/01/15 10:46:58;;;;;;;1.20;1.10;;;;;;;13.81;46.38;95872.92;105484;1256;61250;-41
2024/01/15 10:49:29;;;;;;;1.40;1.10;;;;;;;13.81;46.44;95870.09;105330;1261;74779;-39
2024/01/15 10:52:01;;;;;;;1.00;0.90;;;;;;;13.80;46.47;95865.17;105620;1255;65876;-39
2024/01/15 10:54:28;;;;;;;1.40;1.10;;;;;;;13.80;46.50;95858.40;105503;1259;73247;-37
2024/01/15 10:56:58;;;;;;;1.30;1.20;;;;;;;13.80;46.46;95851.33;105433;1258;61209;-38
2024/01/15 10:59:24;;;;;;;3.80;1.00;;;;;;;13.81;46.51;95847.72;105491;1254;61761;-40
2024/01/15 11:01:55;;;;;;;1.10;1.00;;;;;;;13.82;46.47;95836.98;105734;1256;75658;-40
2024/01/15 11:04:23;;;;;;;1.70;1.20;;;;;;;13.84;46.43;95830.55;105459;1260;65921;-38
2024/01/15 11:06:53;;;;;;;2.40;1.20;;;;;;;13.86;46.47;95830.44;105575;1258;73124;-42
2024/01/15 11:09:20;;;;;;;1.10;1.00;;;;;;;13.87;46.46;95828.30;105352;1258;61555;-40
2024/01/15 11:11:47;;;;;;;1.20;1.10;;;;;;;13.88;46.41;95831.08;105877;1254;61492;-40
2024/01/15 11:14:33;;;;;;;1.40;1.20;;;;;;;13.90;46.38;95833.09;105514;1261;75461;-44
2024/01/15 11:17:00;;;;;;;1.30;1.10;;;;;;;13.91;46.35;95834.26;105471;1260;66050;-40
2024/01/15 11:19:41;;;;;;;1.10;1.00;;;;;;;13.91;46.34;95831.66;105440;1258;72650;-41
2024/01/15 11:22:33;;;;;;;1.20;1.10;;;;;;;13.93;46.33;95832.05;105280;1262;61248;-42
2024/01/15 11:25:13;;;;;;;1.70;1.30;;;;;;;13.93;46.43;95830.07;105586;1259;61349;-39
2024/01/15 11:27:43;;;;;;;1.20;1.10;;;;;;;13.94;46.45;95834.24;105521;1260;74910;-40
2024/01/15 11:30:11;;;;;;;1.50;1.10;;;;;;;13.94;46.34;95834.55;105499;1260;66649;-40